KMCI

Kansas City International Airport

Airport
ICAO code
KMCI
IATA Code
MCI
Summary
ICAO Region
NAM
ICAO Territory
Location

Kansas City, Missouri

Serving
Kansas City
Elevation
1026 ft
Coordinates
39° 17' 51" N , 94° 42' 50" W
KCC
Cfa
Airport BS
Bird Strike
Airport LOS
Parallel Runway Operation
Metar
Observation
KMCI 170053Z 07006KT 10SM SCT050 OVC060 21/18 A3005 RMK AO2 SLP169 T02110183
Station
Kansas City, Kansas City International Airport
Date/Time
2022-08-17 00:53:00
Wind direction
70°
Wind speed
06 kts
Lowest cloud amount
scattered clouds
Temperature
21.1°C
Dew point
18.3°C
Humidity
84%
Weather condition
n/a

International airport serving Kansas City, Missouri, USA.

Climatology

Humid “subtropical” climate (Köppen climate classification Cfa) - characterized by hot, humid summers and cool winters. Significant amounts of precipitation occur in all seasons in most areas. Winter rainfall (and sometimes snowfall) is associated with large storms that the westerlies steer from west to east. Most summer rainfall occurs during thunderstorms and occasional tropical storms (hurricanes).

Runways

Designator Length Width Surface Rops
01R/19L 2896 46 CON Yes/Yes
9/27 2896 46 ASP Yes/Yes
01L/19R 3292 46 CON Yes/Yes

Airport map

Aerial View

SKYbrary Partners:

Safety knowledge contributed by: